sensor_id;sensor_type;location;lat;lon;timestamp;P1;durP1;ratioP1;P2;durP2;ratioP2
177;SDS011;77;48.792;9.032;2023-10-31T00:01:55;1.90;;;1.40;;
177;SDS011;77;48.792;9.032;2023-10-31T00:04:20;1.97;;;1.40;;
177;SDS011;77;48.792;9.032;2023-10-31T00:06:45;2.53;;;1.37;;
177;SDS011;77;48.792;9.032;2023-10-31T00:09:10;2.42;;;1.40;;
177;SDS011;77;48.792;9.032;2023-10-31T00:11:37;3.40;;;1.60;;
177;SDS011;77;48.792;9.032;2023-10-31T00:14:02;2.33;;;1.40;;
177;SDS011;77;48.792;9.032;2023-10-31T00:16:27;1.80;;;1.30;;
177;SDS011;77;48.792;9.032;2023-10-31T00:18:53;2.63;;;1.50;;
177;SDS011;77;48.792;9.032;2023-10-31T00:21:18;1.70;;;1.30;;
177;SDS011;77;48.792;9.032;2023-10-31T00:23:43;3.70;;;1.43;;
177;SDS011;77;48.792;9.032;2023-10-31T00:26:09;2.27;;;1.30;;
177;SDS011;77;48.792;9.032;2023-10-31T00:28:35;2.77;;;1.50;;
177;SDS011;77;48.792;9.032;2023-10-31T00:31:00;2.00;;;1.30;;
177;SDS011;77;48.792;9.032;2023-10-31T00:33:25;1.90;;;1.30;;
177;SDS011;77;48.792;9.032;2023-10-31T00:35:50;2.57;;;1.30;;
177;SDS011;77;48.792;9.032;2023-10-31T00:38:16;2.00;;;1.40;;
177;SDS011;77;48.792;9.032;2023-10-31T00:40:41;1.80;;;1.30;;
177;SDS011;77;48.792;9.032;2023-10-31T00:43:06;2.43;;;1.30;;
177;SDS011;77;48.792;9.032;2023-10-31T00:45:32;2.00;;;1.30;;
177;SDS011;77;48.792;9.032;2023-10-31T00:47:58;2.57;;;1.50;;
177;SDS011;77;48.792;9.032;2023-10-31T00:50:23;2.70;;;1.50;;
177;SDS011;77;48.792;9.032;2023-10-31T00:52:48;3.03;;;1.40;;
177;SDS011;77;48.792;9.032;2023-10-31T00:55:13;2.00;;;1.50;;
177;SDS011;77;48.792;9.032;2023-10-31T00:57:38;2.30;;;1.50;;
177;SDS011;77;48.792;9.032;2023-10-31T01:00:04;2.67;;;1.50;;
177;SDS011;77;48.792;9.032;2023-10-31T01:02:30;2.10;;;1.50;;
177;SDS011;77;48.792;9.032;2023-10-31T01:04:55;2.40;;;1.50;;
177;SDS011;77;48.792;9.032;2023-10-31T01:07:21;2.60;;;1.50;;
177;SDS011;77;48.792;9.032;2023-10-31T01:09:46;3.97;;;1.63;;
177;SDS011;77;48.792;9.032;2023-10-31T01:12:11;3.00;;;1.60;;
177;SDS011;77;48.792;9.032;2023-10-31T01:14:36;2.20;;;1.43;;
177;SDS011;77;48.792;9.032;2023-10-31T01:17:01;3.07;;;1.40;;
177;SDS011;77;48.792;9.032;2023-10-31T01:19:28;2.73;;;1.50;;
177;SDS011;77;48.792;9.032;2023-10-31T01:21:53;5.40;;;1.90;;
177;SDS011;77;48.792;9.032;2023-10-31T01:24:18;2.43;;;1.50;;
177;SDS011;77;48.792;9.032;2023-10-31T01:26:43;3.77;;;1.53;;
177;SDS011;77;48.792;9.032;2023-10-31T01:29:08;2.50;;;1.50;;
177;SDS011;77;48.792;9.032;2023-10-31T01:31:33;2.00;;;1.40;;
177;SDS011;77;48.792;9.032;2023-10-31T01:33:58;4.00;;;1.50;;
177;SDS011;77;48.792;9.032;2023-10-31T01:36:25;2.47;;;1.70;;
177;SDS011;77;48.792;9.032;2023-10-31T01:38:50;3.70;;;1.60;;
177;SDS011;77;48.792;9.032;2023-10-31T01:41:16;2.80;;;1.70;;
177;SDS011;77;48.792;9.032;2023-10-31T01:43:41;2.50;;;1.70;;
177;SDS011;77;48.792;9.032;2023-10-31T01:46:07;2.80;;;1.60;;
177;SDS011;77;48.792;9.032;2023-10-31T01:48:32;3.50;;;1.70;;
177;SDS011;77;48.792;9.032;2023-10-31T01:50:58;2.67;;;1.70;;
177;SDS011;77;48.792;9.032;2023-10-31T01:53:25;1.93;;;1.40;;
177;SDS011;77;48.792;9.032;2023-10-31T01:55:50;5.00;;;1.57;;
177;SDS011;77;48.792;9.032;2023-10-31T01:58:16;3.80;;;1.60;;
177;SDS011;77;48.792;9.032;2023-10-31T02:00:42;2.20;;;1.70;;
177;SDS011;77;48.792;9.032;2023-10-31T02:03:08;9.27;;;1.50;;
177;SDS011;77;48.792;9.032;2023-10-31T02:05:33;5.40;;;1.70;;
177;SDS011;77;48.792;9.032;2023-10-31T02:07:58;2.10;;;1.50;;
177;SDS011;77;48.792;9.032;2023-10-31T02:10:25;3.03;;;1.50;;
177;SDS011;77;48.792;9.032;2023-10-31T02:12:50;3.80;;;1.90;;
177;SDS011;77;48.792;9.032;2023-10-31T02:15:15;2.90;;;1.70;;
177;SDS011;77;48.792;9.032;2023-10-31T02:17:40;3.53;;;1.70;;
177;SDS011;77;48.792;9.032;2023-10-31T02:20:06;5.50;;;1.70;;
177;SDS011;77;48.792;9.032;2023-10-31T02:22:33;2.27;;;1.40;;
177;SDS011;77;48.792;9.032;2023-10-31T02:24:58;1.90;;;1.50;;
177;SDS011;77;48.792;9.032;2023-10-31T02:27:23;2.47;;;1.50;;
177;SDS011;77;48.792;9.032;2023-10-31T02:29:48;2.33;;;1.50;;
177;SDS011;77;48.792;9.032;2023-10-31T02:32:13;2.10;;;1.50;;
177;SDS011;77;48.792;9.032;2023-10-31T02:34:39;3.60;;;1.60;;
177;SDS011;77;48.792;9.032;2023-10-31T02:37:04;2.20;;;1.50;;
177;SDS011;77;48.792;9.032;2023-10-31T02:39:30;2.63;;;1.50;;
177;SDS011;77;48.792;9.032;2023-10-31T02:41:55;2.30;;;1.50;;
177;SDS011;77;48.792;9.032;2023-10-31T02:44:20;2.50;;;1.53;;
177;SDS011;77;48.792;9.032;2023-10-31T02:46:46;2.20;;;1.50;;
177;SDS011;77;48.792;9.032;2023-10-31T02:49:11;2.93;;;1.50;;
177;SDS011;77;48.792;9.032;2023-10-31T02:51:36;2.83;;;1.57;;
177;SDS011;77;48.792;9.032;2023-10-31T02:54:01;3.42;;;1.70;;
177;SDS011;77;48.792;9.032;2023-10-31T02:56:28;2.40;;;1.60;;
177;SDS011;77;48.792;9.032;2023-10-31T02:58:53;3.33;;;1.70;;
177;SDS011;77;48.792;9.032;2023-10-31T03:01:18;2.40;;;1.70;;
177;SDS011;77;48.792;9.032;2023-10-31T03:03:43;2.20;;;1.50;;
177;SDS011;77;48.792;9.032;2023-10-31T03:06:08;2.53;;;1.90;;
177;SDS011;77;48.792;9.032;2023-10-31T03:08:33;4.53;;;1.70;;
177;SDS011;77;48.792;9.032;2023-10-31T03:10:59;2.60;;;1.53;;
177;SDS011;77;48.792;9.032;2023-10-31T03:13:25;2.57;;;1.47;;
177;SDS011;77;48.792;9.032;2023-10-31T03:15:50;2.90;;;1.40;;
177;SDS011;77;48.792;9.032;2023-10-31T03:18:15;2.83;;;1.50;;
177;SDS011;77;48.792;9.032;2023-10-31T03:20:43;2.63;;;1.67;;
177;SDS011;77;48.792;9.032;2023-10-31T03:23:08;2.63;;;1.60;;
177;SDS011;77;48.792;9.032;2023-10-31T03:25:33;2.72;;;1.50;;
177;SDS011;77;48.792;9.032;2023-10-31T03:27:58;2.50;;;1.70;;
177;SDS011;77;48.792;9.032;2023-10-31T03:30:25;1.83;;;1.40;;
177;SDS011;77;48.792;9.032;2023-10-31T03:32:50;2.73;;;1.67;;
177;SDS011;77;48.792;9.032;2023-10-31T03:35:15;2.00;;;1.50;;
177;SDS011;77;48.792;9.032;2023-10-31T03:37:40;2.80;;;1.50;;
177;SDS011;77;48.792;9.032;2023-10-31T03:40:06;3.97;;;1.83;;
177;SDS011;77;48.792;9.032;2023-10-31T03:42:32;2.77;;;1.50;;
177;SDS011;77;48.792;9.032;2023-10-31T03:44:57;3.37;;;1.73;;
177;SDS011;77;48.792;9.032;2023-10-31T03:47:23;4.43;;;1.60;;
177;SDS011;77;48.792;9.032;2023-10-31T03:49:48;2.50;;;1.60;;
177;SDS011;77;48.792;9.032;2023-10-31T03:52:14;2.10;;;1.53;;
177;SDS011;77;48.792;9.032;2023-10-31T03:54:39;2.83;;;1.60;;
177;SDS011;77;48.792;9.032;2023-10-31T03:57:04;2.27;;;1.60;;
177;SDS011;77;48.792;9.032;2023-10-31T03:59:29;2.30;;;1.53;;
177;SDS011;77;48.792;9.032;2023-10-31T04:01:54;2.83;;;1.75;;
177;SDS011;77;48.792;9.032;2023-10-31T04:04:21;2.55;;;1.70;;
177;SDS011;77;48.792;9.032;2023-10-31T04:06:46;2.67;;;1.70;;
177;SDS011;77;48.792;9.032;2023-10-31T04:09:11;2.67;;;1.70;;
177;SDS011;77;48.792;9.032;2023-10-31T04:11:37;2.30;;;1.63;;
177;SDS011;77;48.792;9.032;2023-10-31T04:14:02;6.63;;;1.70;;
177;SDS011;77;48.792;9.032;2023-10-31T04:16:27;3.27;;;1.70;;
177;SDS011;77;48.792;9.032;2023-10-31T04:18:52;2.30;;;1.60;;
177;SDS011;77;48.792;9.032;2023-10-31T04:21:19;2.50;;;1.60;;
177;SDS011;77;48.792;9.032;2023-10-31T04:23:44;3.40;;;1.63;;
177;SDS011;77;48.792;9.032;2023-10-31T04:26:09;2.90;;;1.80;;
177;SDS011;77;48.792;9.032;2023-10-31T04:28:34;3.43;;;1.60;;
177;SDS011;77;48.792;9.032;2023-10-31T04:30:59;3.93;;;1.77;;
177;SDS011;77;48.792;9.032;2023-10-31T04:33:24;2.67;;;1.60;;
177;SDS011;77;48.792;9.032;2023-10-31T04:35:49;3.13;;;1.60;;
177;SDS011;77;48.792;9.032;2023-10-31T04:38:16;2.63;;;1.70;;
177;SDS011;77;48.792;9.032;2023-10-31T04:40:41;2.43;;;1.60;;
177;SDS011;77;48.792;9.032;2023-10-31T04:43:06;4.75;;;1.60;;
177;SDS011;77;48.792;9.032;2023-10-31T04:45:31;2.50;;;1.50;;
177;SDS011;77;48.792;9.032;2023-10-31T04:47:56;2.08;;;1.50;;
177;SDS011;77;48.792;9.032;2023-10-31T04:50:22;2.72;;;1.60;;
177;SDS011;77;48.792;9.032;2023-10-31T04:52:47;2.63;;;1.50;;
177;SDS011;77;48.792;9.032;2023-10-31T04:55:13;3.70;;;1.77;;
177;SDS011;77;48.792;9.032;2023-10-31T04:57:38;2.83;;;1.80;;
177;SDS011;77;48.792;9.032;2023-10-31T05:00:04;2.93;;;1.80;;
177;SDS011;77;48.792;9.032;2023-10-31T05:02:29;3.50;;;1.60;;
177;SDS011;77;48.792;9.032;2023-10-31T05:04:54;3.60;;;1.80;;
177;SDS011;77;48.792;9.032;2023-10-31T05:07:20;3.00;;;1.90;;
177;SDS011;77;48.792;9.032;2023-10-31T05:09:45;2.20;;;1.60;;
177;SDS011;77;48.792;9.032;2023-10-31T05:12:11;4.50;;;1.90;;
177;SDS011;77;48.792;9.032;2023-10-31T05:14:36;3.50;;;1.90;;
177;SDS011;77;48.792;9.032;2023-10-31T05:17:02;2.80;;;1.90;;
177;SDS011;77;48.792;9.032;2023-10-31T05:19:27;3.47;;;1.90;;
177;SDS011;77;48.792;9.032;2023-10-31T05:21:52;2.10;;;1.60;;
177;SDS011;77;48.792;9.032;2023-10-31T05:24:17;2.63;;;1.67;;
177;SDS011;77;48.792;9.032;2023-10-31T05:26:42;2.43;;;1.60;;
177;SDS011;77;48.792;9.032;2023-10-31T05:29:09;3.33;;;1.80;;
177;SDS011;77;48.792;9.032;2023-10-31T05:31:34;3.80;;;1.50;;
177;SDS011;77;48.792;9.032;2023-10-31T05:33:59;2.72;;;1.70;;
177;SDS011;77;48.792;9.032;2023-10-31T05:36:25;2.17;;;1.60;;
177;SDS011;77;48.792;9.032;2023-10-31T05:38:50;3.00;;;1.70;;
177;SDS011;77;48.792;9.032;2023-10-31T05:41:15;2.47;;;1.70;;
177;SDS011;77;48.792;9.032;2023-10-31T05:43:41;2.40;;;1.80;;
177;SDS011;77;48.792;9.032;2023-10-31T05:46:07;2.00;;;1.50;;
177;SDS011;77;48.792;9.032;2023-10-31T05:48:32;3.23;;;1.60;;
177;SDS011;77;48.792;9.032;2023-10-31T05:50:57;2.67;;;1.50;;
177;SDS011;77;48.792;9.032;2023-10-31T05:53:23;3.90;;;1.77;;
177;SDS011;77;48.792;9.032;2023-10-31T05:55:48;4.90;;;1.70;;
177;SDS011;77;48.792;9.032;2023-10-31T05:58:13;3.30;;;1.80;;
177;SDS011;77;48.792;9.032;2023-10-31T06:00:38;2.08;;;1.42;;
177;SDS011;77;48.792;9.032;2023-10-31T06:03:04;2.13;;;1.40;;
177;SDS011;77;48.792;9.032;2023-10-31T06:05:30;3.50;;;1.60;;
177;SDS011;77;48.792;9.032;2023-10-31T06:07:55;2.63;;;1.60;;
177;SDS011;77;48.792;9.032;2023-10-31T06:10:20;1.93;;;1.50;;
177;SDS011;77;48.792;9.032;2023-10-31T06:12:45;2.00;;;1.40;;
177;SDS011;77;48.792;9.032;2023-10-31T06:15:10;2.28;;;1.58;;
177;SDS011;77;48.792;9.032;2023-10-31T06:17:35;2.20;;;1.50;;
177;SDS011;77;48.792;9.032;2023-10-31T06:20:02;2.47;;;1.50;;
177;SDS011;77;48.792;9.032;2023-10-31T06:22:27;2.70;;;1.63;;
177;SDS011;77;48.792;9.032;2023-10-31T06:24:52;3.00;;;1.65;;
177;SDS011;77;48.792;9.032;2023-10-31T06:27:18;3.80;;;1.43;;
177;SDS011;77;48.792;9.032;2023-10-31T06:29:43;3.10;;;1.40;;
177;SDS011;77;48.792;9.032;2023-10-31T06:32:08;2.10;;;1.50;;
177;SDS011;77;48.792;9.032;2023-10-31T06:34:33;2.85;;;1.58;;
177;SDS011;77;48.792;9.032;2023-10-31T06:36:59;2.40;;;1.40;;
177;SDS011;77;48.792;9.032;2023-10-31T06:39:25;2.43;;;1.50;;
177;SDS011;77;48.792;9.032;2023-10-31T06:41:50;5.57;;;1.92;;
177;SDS011;77;48.792;9.032;2023-10-31T06:44:19;2.03;;;1.50;;
177;SDS011;77;48.792;9.032;2023-10-31T06:46:44;4.63;;;1.60;;
177;SDS011;77;48.792;9.032;2023-10-31T06:49:09;2.00;;;1.50;;
177;SDS011;77;48.792;9.032;2023-10-31T06:51:34;5.73;;;1.60;;
177;SDS011;77;48.792;9.032;2023-10-31T06:54:01;3.13;;;1.70;;
177;SDS011;77;48.792;9.032;2023-10-31T06:56:26;2.83;;;1.60;;
177;SDS011;77;48.792;9.032;2023-10-31T06:58:51;3.13;;;1.63;;
177;SDS011;77;48.792;9.032;2023-10-31T07:01:16;2.70;;;1.80;;
177;SDS011;77;48.792;9.032;2023-10-31T07:03:41;2.20;;;1.60;;
177;SDS011;77;48.792;9.032;2023-10-31T07:06:07;2.20;;;1.60;;
177;SDS011;77;48.792;9.032;2023-10-31T07:08:32;2.77;;;1.60;;
177;SDS011;77;48.792;9.032;2023-10-31T07:10:58;6.60;;;1.80;;
177;SDS011;77;48.792;9.032;2023-10-31T07:13:23;4.00;;;1.70;;
177;SDS011;77;48.792;9.032;2023-10-31T07:15:49;2.80;;;1.70;;
177;SDS011;77;48.792;9.032;2023-10-31T07:18:14;3.75;;;1.77;;
177;SDS011;77;48.792;9.032;2023-10-31T07:20:39;2.05;;;1.50;;
177;SDS011;77;48.792;9.032;2023-10-31T07:23:04;3.80;;;1.80;;
177;SDS011;77;48.792;9.032;2023-10-31T07:25:29;4.90;;;1.73;;
177;SDS011;77;48.792;9.032;2023-10-31T07:27:56;2.72;;;1.60;;
177;SDS011;77;48.792;9.032;2023-10-31T07:30:21;3.33;;;1.77;;
177;SDS011;77;48.792;9.032;2023-10-31T07:32:46;2.80;;;1.90;;
177;SDS011;77;48.792;9.032;2023-10-31T07:35:11;3.80;;;1.63;;
177;SDS011;77;48.792;9.032;2023-10-31T07:37:36;3.67;;;1.63;;
177;SDS011;77;48.792;9.032;2023-10-31T07:40:01;5.90;;;1.70;;
177;SDS011;77;48.792;9.032;2023-10-31T07:42:27;5.00;;;1.70;;
177;SDS011;77;48.792;9.032;2023-10-31T07:44:53;3.70;;;1.50;;
177;SDS011;77;48.792;9.032;2023-10-31T07:47:18;5.13;;;2.07;;
177;SDS011;77;48.792;9.032;2023-10-31T07:49:43;3.67;;;1.83;;
177;SDS011;77;48.792;9.032;2023-10-31T07:52:08;4.17;;;1.80;;
177;SDS011;77;48.792;9.032;2023-10-31T07:54:34;4.28;;;1.88;;
177;SDS011;77;48.792;9.032;2023-10-31T07:56:59;5.05;;;2.13;;
177;SDS011;77;48.792;9.032;2023-10-31T07:59:24;3.83;;;2.10;;
177;SDS011;77;48.792;9.032;2023-10-31T08:01:50;3.70;;;1.70;;
177;SDS011;77;48.792;9.032;2023-10-31T08:04:16;4.77;;;2.27;;
177;SDS011;77;48.792;9.032;2023-10-31T08:06:41;2.73;;;2.00;;
177;SDS011;77;48.792;9.032;2023-10-31T08:09:06;2.80;;;1.80;;
177;SDS011;77;48.792;9.032;2023-10-31T08:11:31;3.38;;;1.92;;
177;SDS011;77;48.792;9.032;2023-10-31T08:13:56;3.08;;;1.80;;
177;SDS011;77;48.792;9.032;2023-10-31T08:16:21;4.07;;;2.10;;
177;SDS011;77;48.792;9.032;2023-10-31T08:18:48;4.23;;;2.00;;
177;SDS011;77;48.792;9.032;2023-10-31T08:21:13;3.30;;;1.93;;
177;SDS011;77;48.792;9.032;2023-10-31T08:23:38;2.90;;;2.03;;
177;SDS011;77;48.792;9.032;2023-10-31T08:26:03;5.67;;;2.33;;
177;SDS011;77;48.792;9.032;2023-10-31T08:28:28;4.40;;;2.20;;
177;SDS011;77;48.792;9.032;2023-10-31T08:30:54;5.50;;;1.90;;
177;SDS011;77;48.792;9.032;2023-10-31T08:33:19;4.30;;;2.20;;
177;SDS011;77;48.792;9.032;2023-10-31T08:35:45;5.70;;;2.63;;
177;SDS011;77;48.792;9.032;2023-10-31T08:38:10;3.43;;;1.93;;
177;SDS011;77;48.792;9.032;2023-10-31T08:40:36;4.47;;;2.13;;
177;SDS011;77;48.792;9.032;2023-10-31T08:43:01;3.97;;;2.00;;
177;SDS011;77;48.792;9.032;2023-10-31T08:45:26;3.55;;;1.90;;
177;SDS011;77;48.792;9.032;2023-10-31T08:47:51;3.80;;;1.80;;
177;SDS011;77;48.792;9.032;2023-10-31T08:50:16;5.77;;;2.00;;
177;SDS011;77;48.792;9.032;2023-10-31T08:52:43;5.37;;;2.20;;
177;SDS011;77;48.792;9.032;2023-10-31T08:55:08;6.00;;;2.23;;
177;SDS011;77;48.792;9.032;2023-10-31T08:57:33;4.80;;;2.20;;
177;SDS011;77;48.792;9.032;2023-10-31T08:59:58;4.60;;;2.00;;
177;SDS011;77;48.792;9.032;2023-10-31T09:02:23;6.57;;;2.30;;
177;SDS011;77;48.792;9.032;2023-10-31T09:04:49;4.07;;;2.20;;
177;SDS011;77;48.792;9.032;2023-10-31T09:07:14;2.67;;;1.70;;
177;SDS011;77;48.792;9.032;2023-10-31T09:09:40;2.83;;;2.00;;
177;SDS011;77;48.792;9.032;2023-10-31T09:12:06;4.90;;;2.40;;
177;SDS011;77;48.792;9.032;2023-10-31T09:14:31;3.40;;;2.33;;
177;SDS011;77;48.792;9.032;2023-10-31T09:16:56;5.03;;;2.23;;
177;SDS011;77;48.792;9.032;2023-10-31T09:19:21;5.10;;;2.20;;
177;SDS011;77;48.792;9.032;2023-10-31T09:21:46;4.40;;;2.13;;
177;SDS011;77;48.792;9.032;2023-10-31T09:24:11;4.03;;;2.20;;
177;SDS011;77;48.792;9.032;2023-10-31T09:26:38;6.53;;;2.30;;
177;SDS011;77;48.792;9.032;2023-10-31T09:29:06;3.70;;;2.20;;
177;SDS011;77;48.792;9.032;2023-10-31T09:31:31;4.03;;;2.10;;
177;SDS011;77;48.792;9.032;2023-10-31T09:33:56;5.30;;;1.90;;
177;SDS011;77;48.792;9.032;2023-10-31T09:36:21;4.70;;;2.23;;
177;SDS011;77;48.792;9.032;2023-10-31T09:38:47;7.57;;;2.40;;
177;SDS011;77;48.792;9.032;2023-10-31T09:41:12;3.20;;;1.80;;
177;SDS011;77;48.792;9.032;2023-10-31T09:43:38;4.00;;;2.20;;
177;SDS011;77;48.792;9.032;2023-10-31T09:46:03;6.87;;;2.13;;
177;SDS011;77;48.792;9.032;2023-10-31T09:48:30;4.30;;;1.87;;
177;SDS011;77;48.792;9.032;2023-10-31T09:50:55;5.33;;;1.87;;
177;SDS011;77;48.792;9.032;2023-10-31T09:53:20;3.77;;;1.83;;
177;SDS011;77;48.792;9.032;2023-10-31T09:55:46;3.60;;;1.90;;
177;SDS011;77;48.792;9.032;2023-10-31T09:58:12;4.20;;;2.10;;
177;SDS011;77;48.792;9.032;2023-10-31T10:00:38;4.83;;;1.93;;
177;SDS011;77;48.792;9.032;2023-10-31T10:03:04;4.83;;;2.27;;
177;SDS011;77;48.792;9.032;2023-10-31T10:05:29;7.63;;;2.33;;
177;SDS011;77;48.792;9.032;2023-10-31T10:07:55;5.40;;;2.00;;
177;SDS011;77;48.792;9.032;2023-10-31T10:10:21;11.57;;;2.43;;
177;SDS011;77;48.792;9.032;2023-10-31T10:12:46;6.77;;;2.20;;
177;SDS011;77;48.792;9.032;2023-10-31T10:15:11;4.00;;;2.17;;
177;SDS011;77;48.792;9.032;2023-10-31T10:17:37;5.67;;;2.60;;
177;SDS011;77;48.792;9.032;2023-10-31T10:20:06;3.37;;;1.80;;
177;SDS011;77;48.792;9.032;2023-10-31T10:22:31;8.50;;;3.03;;
177;SDS011;77;48.792;9.032;2023-10-31T10:24:56;6.33;;;2.30;;
177;SDS011;77;48.792;9.032;2023-10-31T10:27:22;5.80;;;2.33;;
177;SDS011;77;48.792;9.032;2023-10-31T10:29:47;5.97;;;2.10;;
177;SDS011;77;48.792;9.032;2023-10-31T10:32:12;5.37;;;2.40;;
177;SDS011;77;48.792;9.032;2023-10-31T10:34:39;9.30;;;2.20;;
177;SDS011;77;48.792;9.032;2023-10-31T10:37:06;5.47;;;2.00;;
177;SDS011;77;48.792;9.032;2023-10-31T10:39:32;6.10;;;2.13;;
177;SDS011;77;48.792;9.032;2023-10-31T10:41:57;6.03;;;2.50;;
177;SDS011;77;48.792;9.032;2023-10-31T10:44:28;4.07;;;2.17;;
177;SDS011;77;48.792;9.032;2023-10-31T10:46:55;5.63;;;2.50;;
177;SDS011;77;48.792;9.032;2023-10-31T10:49:21;6.23;;;2.10;;
177;SDS011;77;48.792;9.032;2023-10-31T10:51:52;5.73;;;2.20;;
177;SDS011;77;48.792;9.032;2023-10-31T10:54:18;3.40;;;2.00;;
177;SDS011;77;48.792;9.032;2023-10-31T10:56:46;3.87;;;2.23;;
177;SDS011;77;48.792;9.032;2023-10-31T10:59:14;5.57;;;2.00;;
177;SDS011;77;48.792;9.032;2023-10-31T11:01:39;3.30;;;1.80;;
177;SDS011;77;48.792;9.032;2023-10-31T11:04:06;4.60;;;2.30;;
177;SDS011;77;48.792;9.032;2023-10-31T11:06:31;4.40;;;1.90;;
177;SDS011;77;48.792;9.032;2023-10-31T11:08:59;3.67;;;2.00;;
177;SDS011;77;48.792;9.032;2023-10-31T11:11:24;3.47;;;1.90;;
177;SDS011;77;48.792;9.032;2023-10-31T11:13:50;3.10;;;1.90;;
177;SDS011;77;48.792;9.032;2023-10-31T11:16:16;3.17;;;1.70;;
177;SDS011;77;48.792;9.032;2023-10-31T11:18:42;3.60;;;1.93;;
177;SDS011;77;48.792;9.032;2023-10-31T11:21:07;3.47;;;1.70;;
177;SDS011;77;48.792;9.032;2023-10-31T11:23:32;6.20;;;2.10;;
177;SDS011;77;48.792;9.032;2023-10-31T11:25:59;6.80;;;2.20;;
177;SDS011;77;48.792;9.032;2023-10-31T11:28:25;4.70;;;1.90;;
177;SDS011;77;48.792;9.032;2023-10-31T11:30:50;7.03;;;2.00;;
177;SDS011;77;48.792;9.032;2023-10-31T11:33:16;4.17;;;2.00;;
177;SDS011;77;48.792;9.032;2023-10-31T11:35:41;3.33;;;1.60;;
177;SDS011;77;48.792;9.032;2023-10-31T11:38:07;3.20;;;1.80;;
177;SDS011;77;48.792;9.032;2023-10-31T11:40:33;2.60;;;1.50;;
177;SDS011;77;48.792;9.032;2023-10-31T11:43:02;2.80;;;1.57;;
177;SDS011;77;48.792;9.032;2023-10-31T11:45:27;2.87;;;1.50;;
177;SDS011;77;48.792;9.032;2023-10-31T11:47:53;3.53;;;1.60;;
177;SDS011;77;48.792;9.032;2023-10-31T11:50:18;3.03;;;1.70;;
177;SDS011;77;48.792;9.032;2023-10-31T11:52:43;3.40;;;1.70;;
177;SDS011;77;48.792;9.032;2023-10-31T11:55:08;3.00;;;1.60;;
177;SDS011;77;48.792;9.032;2023-10-31T11:57:34;3.40;;;1.67;;
177;SDS011;77;48.792;9.032;2023-10-31T12:00:00;2.83;;;1.60;;
177;SDS011;77;48.792;9.032;2023-10-31T12:02:25;4.40;;;1.90;;
177;SDS011;77;48.792;9.032;2023-10-31T12:04:51;2.33;;;1.50;;
177;SDS011;77;48.792;9.032;2023-10-31T12:07:18;2.30;;;1.47;;
177;SDS011;77;48.792;9.032;2023-10-31T12:09:45;2.53;;;1.40;;
177;SDS011;77;48.792;9.032;2023-10-31T12:12:10;3.50;;;1.60;;
177;SDS011;77;48.792;9.032;2023-10-31T12:14:35;2.93;;;1.53;;
177;SDS011;77;48.792;9.032;2023-10-31T12:17:04;2.70;;;1.57;;
177;SDS011;77;48.792;9.032;2023-10-31T12:19:30;3.23;;;1.63;;
177;SDS011;77;48.792;9.032;2023-10-31T12:21:55;2.33;;;1.40;;
177;SDS011;77;48.792;9.032;2023-10-31T12:24:20;3.90;;;1.50;;
177;SDS011;77;48.792;9.032;2023-10-31T12:26:45;3.60;;;1.63;;
177;SDS011;77;48.792;9.032;2023-10-31T12:29:11;1.80;;;1.40;;
177;SDS011;77;48.792;9.032;2023-10-31T12:31:42;8.00;;;1.53;;
177;SDS011;77;48.792;9.032;2023-10-31T12:34:08;2.60;;;1.57;;
177;SDS011;77;48.792;9.032;2023-10-31T12:36:34;3.50;;;1.80;;
177;SDS011;77;48.792;9.032;2023-10-31T12:39:00;1.90;;;1.40;;
177;SDS011;77;48.792;9.032;2023-10-31T12:41:26;4.50;;;1.53;;
177;SDS011;77;48.792;9.032;2023-10-31T12:43:51;2.13;;;1.43;;
177;SDS011;77;48.792;9.032;2023-10-31T12:46:25;3.77;;;1.60;;
177;SDS011;77;48.792;9.032;2023-10-31T12:48:51;2.53;;;1.50;;
177;SDS011;77;48.792;9.032;2023-10-31T12:51:17;3.50;;;1.40;;
177;SDS011;77;48.792;9.032;2023-10-31T12:53:42;2.87;;;1.50;;
177;SDS011;77;48.792;9.032;2023-10-31T12:56:13;2.33;;;1.30;;
177;SDS011;77;48.792;9.032;2023-10-31T12:58:58;2.00;;;1.50;;
177;SDS011;77;48.792;9.032;2023-10-31T13:01:23;2.20;;;1.60;;
177;SDS011;77;48.792;9.032;2023-10-31T13:03:48;2.10;;;1.40;;
177;SDS011;77;48.792;9.032;2023-10-31T13:06:14;2.10;;;1.30;;
177;SDS011;77;48.792;9.032;2023-10-31T13:08:41;2.33;;;1.40;;
177;SDS011;77;48.792;9.032;2023-10-31T13:11:07;2.43;;;1.37;;
177;SDS011;77;48.792;9.032;2023-10-31T13:13:32;1.80;;;1.40;;
177;SDS011;77;48.792;9.032;2023-10-31T13:15:57;2.33;;;1.48;;
177;SDS011;77;48.792;9.032;2023-10-31T13:18:22;1.60;;;1.30;;
177;SDS011;77;48.792;9.032;2023-10-31T13:20:48;2.00;;;1.40;;
177;SDS011;77;48.792;9.032;2023-10-31T13:23:13;2.50;;;1.50;;
177;SDS011;77;48.792;9.032;2023-10-31T13:25:39;2.50;;;1.70;;
177;SDS011;77;48.792;9.032;2023-10-31T13:28:04;3.50;;;1.50;;
177;SDS011;77;48.792;9.032;2023-10-31T13:30:30;5.20;;;2.00;;
177;SDS011;77;48.792;9.032;2023-10-31T13:32:55;3.63;;;1.73;;
177;SDS011;77;48.792;9.032;2023-10-31T13:35:20;2.40;;;1.50;;
177;SDS011;77;48.792;9.032;2023-10-31T13:37:45;2.40;;;1.40;;
177;SDS011;77;48.792;9.032;2023-10-31T13:40:10;2.37;;;1.50;;
177;SDS011;77;48.792;9.032;2023-10-31T13:42:37;3.00;;;1.50;;
177;SDS011;77;48.792;9.032;2023-10-31T13:45:02;2.80;;;1.50;;
177;SDS011;77;48.792;9.032;2023-10-31T13:47:27;2.23;;;1.53;;
177;SDS011;77;48.792;9.032;2023-10-31T13:49:53;2.80;;;1.50;;
177;SDS011;77;48.792;9.032;2023-10-31T13:52:18;3.25;;;1.60;;
177;SDS011;77;48.792;9.032;2023-10-31T13:54:43;6.57;;;1.70;;
177;SDS011;77;48.792;9.032;2023-10-31T13:57:08;3.30;;;1.50;;
177;SDS011;77;48.792;9.032;2023-10-31T13:59:34;2.20;;;1.50;;
177;SDS011;77;48.792;9.032;2023-10-31T14:02:00;4.60;;;2.00;;
177;SDS011;77;48.792;9.032;2023-10-31T14:04:25;2.50;;;1.60;;
177;SDS011;77;48.792;9.032;2023-10-31T14:06:50;7.27;;;1.97;;
177;SDS011;77;48.792;9.032;2023-10-31T14:09:15;3.27;;;1.50;;
177;SDS011;77;48.792;9.032;2023-10-31T14:11:41;2.60;;;1.57;;
177;SDS011;77;48.792;9.032;2023-10-31T14:14:06;3.57;;;1.73;;
177;SDS011;77;48.792;9.032;2023-10-31T14:16:33;3.87;;;1.50;;
177;SDS011;77;48.792;9.032;2023-10-31T14:18:58;2.60;;;1.60;;
177;SDS011;77;48.792;9.032;2023-10-31T14:21:23;3.43;;;1.50;;
177;SDS011;77;48.792;9.032;2023-10-31T14:23:48;2.20;;;1.40;;
177;SDS011;77;48.792;9.032;2023-10-31T14:26:13;2.70;;;1.70;;
177;SDS011;77;48.792;9.032;2023-10-31T14:28:39;2.78;;;1.70;;
177;SDS011;77;48.792;9.032;2023-10-31T14:31:04;4.20;;;2.20;;
177;SDS011;77;48.792;9.032;2023-10-31T14:33:30;3.90;;;1.80;;
177;SDS011;77;48.792;9.032;2023-10-31T14:35:55;3.83;;;1.80;;
177;SDS011;77;48.792;9.032;2023-10-31T14:38:21;2.78;;;1.80;;
177;SDS011;77;48.792;9.032;2023-10-31T14:40:46;3.50;;;1.88;;
177;SDS011;77;48.792;9.032;2023-10-31T14:43:11;4.87;;;1.70;;
177;SDS011;77;48.792;9.032;2023-10-31T14:45:36;3.30;;;2.00;;
177;SDS011;77;48.792;9.032;2023-10-31T14:48:01;3.30;;;2.10;;
177;SDS011;77;48.792;9.032;2023-10-31T14:50:28;3.25;;;1.80;;
177;SDS011;77;48.792;9.032;2023-10-31T14:52:53;3.20;;;1.80;;
177;SDS011;77;48.792;9.032;2023-10-31T14:55:18;3.28;;;1.80;;
177;SDS011;77;48.792;9.032;2023-10-31T14:57:43;4.30;;;2.00;;
177;SDS011;77;48.792;9.032;2023-10-31T15:00:10;2.90;;;1.80;;
177;SDS011;77;48.792;9.032;2023-10-31T15:02:35;4.50;;;1.80;;
177;SDS011;77;48.792;9.032;2023-10-31T15:05:00;3.13;;;1.70;;
177;SDS011;77;48.792;9.032;2023-10-31T15:07:27;2.87;;;1.90;;
177;SDS011;77;48.792;9.032;2023-10-31T15:09:52;5.30;;;2.20;;
177;SDS011;77;48.792;9.032;2023-10-31T15:12:17;4.97;;;2.00;;
177;SDS011;77;48.792;9.032;2023-10-31T15:14:42;3.47;;;2.03;;
177;SDS011;77;48.792;9.032;2023-10-31T15:17:07;3.30;;;2.10;;
177;SDS011;77;48.792;9.032;2023-10-31T15:19:32;2.73;;;1.93;;
177;SDS011;77;48.792;9.032;2023-10-31T15:21:58;4.60;;;2.23;;
177;SDS011;77;48.792;9.032;2023-10-31T15:24:24;3.33;;;2.20;;
177;SDS011;77;48.792;9.032;2023-10-31T15:26:49;4.17;;;2.17;;
177;SDS011;77;48.792;9.032;2023-10-31T15:29:14;3.33;;;2.40;;
177;SDS011;77;48.792;9.032;2023-10-31T15:31:42;4.05;;;2.60;;
177;SDS011;77;48.792;9.032;2023-10-31T15:34:07;4.90;;;2.53;;
177;SDS011;77;48.792;9.032;2023-10-31T15:36:32;3.37;;;2.37;;
177;SDS011;77;48.792;9.032;2023-10-31T15:38:58;5.20;;;2.10;;
177;SDS011;77;48.792;9.032;2023-10-31T15:41:24;2.87;;;1.87;;
177;SDS011;77;48.792;9.032;2023-10-31T15:43:49;2.83;;;1.80;;
177;SDS011;77;48.792;9.032;2023-10-31T15:46:14;2.70;;;1.80;;
177;SDS011;77;48.792;9.032;2023-10-31T15:48:40;3.72;;;1.73;;
177;SDS011;77;48.792;9.032;2023-10-31T15:51:05;5.30;;;1.80;;